createdAt,value
2018-09-29T00:02:20.754Z,80.52
2018-09-29T00:04:51.511Z,81.48
2018-09-29T00:07:22.253Z,80.90
2018-09-29T00:09:51.893Z,80.42
2018-09-29T00:12:22.874Z,81.18
2018-09-29T00:14:52.561Z,81.95
2018-09-29T00:17:22.408Z,80.97
2018-09-29T00:19:54.362Z,81.19
2018-09-29T00:22:23.996Z,81.68
2018-09-29T00:24:54.636Z,81.47
2018-09-29T00:27:25.690Z,81.63
2018-09-29T00:29:55.552Z,81.81
2018-09-29T00:32:25.324Z,81.61
2018-09-29T00:34:57.015Z,81.84
2018-09-29T00:37:27.857Z,81.78
2018-09-29T00:39:58.914Z,81.19
2018-09-29T00:42:28.533Z,81.51
2018-09-29T00:44:58.770Z,81.99
2018-09-29T00:47:30.266Z,82.49
2018-09-29T00:50:01.318Z,81.59
2018-09-29T00:52:31.427Z,81.95
2018-09-29T00:55:01.167Z,82.08
2018-09-29T00:57:31.916Z,82.20
2018-09-29T01:00:01.578Z,81.64
2018-09-29T01:02:31.760Z,81.48
2018-09-29T01:05:02.390Z,82.01
2018-09-29T01:07:32.945Z,81.70
2018-09-29T01:10:03.076Z,81.82
2018-09-29T01:12:32.809Z,82.67
2018-09-29T01:15:02.610Z,82.35
2018-09-29T01:17:33.416Z,82.05
2018-09-29T01:20:03.126Z,82.08
2018-09-29T01:22:33.264Z,82.24
2018-09-29T01:25:03.468Z,82.44
2018-09-29T01:27:33.154Z,82.85
2018-09-29T01:30:02.856Z,82.50
2018-09-29T01:32:33.121Z,82.31
2018-09-29T01:35:04.600Z,82.91
2018-09-29T01:37:34.329Z,83.25
2018-09-29T01:40:04.651Z,82.78
2018-09-29T01:42:34.366Z,83.09
2018-09-29T01:45:04.077Z,82.09
2018-09-29T01:47:34.422Z,82.45
2018-09-29T01:50:04.649Z,82.24
2018-09-29T01:52:34.426Z,82.62
2018-09-29T01:55:06.213Z,83.13
2018-09-29T01:57:35.979Z,82.28
2018-09-29T02:00:05.678Z,82.63
2018-09-29T02:02:35.545Z,83.05
2018-09-29T02:05:05.341Z,82.64
2018-09-29T02:07:35.099Z,82.45
2018-09-29T02:10:04.922Z,82.73
2018-09-29T02:12:41.491Z,82.64
2018-09-29T02:15:11.126Z,82.59
2018-09-29T02:17:41.553Z,82.83
2018-09-29T02:20:12.545Z,83.29
2018-09-29T02:22:43.010Z,83.45
2018-09-29T02:25:13.366Z,83.60
2018-09-29T02:27:43.534Z,83.30
2018-09-29T02:30:13.347Z,83.87
2018-09-29T02:32:44.050Z,83.09
2018-09-29T02:35:14.233Z,83.92
2018-09-29T02:37:46.637Z,83.58
2018-09-29T02:40:17.476Z,83.35
2018-09-29T02:42:47.234Z,83.57
2018-09-29T02:45:19.254Z,83.26
2018-09-29T02:47:48.915Z,82.78
2018-09-29T02:50:19.326Z,83.43
2018-09-29T02:52:48.962Z,83.63
2018-09-29T02:55:20.332Z,83.56
2018-09-29T02:57:50.242Z,83.29
2018-09-29T03:00:23.192Z,82.96
2018-09-29T03:02:52.846Z,83.06
2018-09-29T03:05:22.580Z,83.08
2018-09-29T03:07:52.373Z,82.86
2018-09-29T03:10:22.785Z,83.47
2018-09-29T03:12:52.459Z,83.65
2018-09-29T03:15:22.198Z,84.09
2018-09-29T03:17:54.939Z,83.76
2018-09-29T03:20:24.606Z,83.92
2018-09-29T03:22:54.354Z,83.90
2018-09-29T03:25:24.413Z,83.57
2018-09-29T03:27:54.709Z,83.95
2018-09-29T03:30:24.431Z,84.02
2018-09-29T03:32:54.066Z,83.50
2018-09-29T03:35:23.687Z,83.43
2018-09-29T03:37:53.386Z,83.75
2018-09-29T03:40:23.039Z,83.76
2018-09-29T03:42:53.221Z,84.33
2018-09-29T03:45:22.873Z,83.21
2018-09-29T03:47:52.545Z,83.63
2018-09-29T03:50:23.851Z,84.39
2018-09-29T03:52:53.772Z,84.49
2018-09-29T03:55:24.522Z,84.04
2018-09-29T03:57:54.619Z,83.26
2018-09-29T04:00:24.430Z,83.91
2018-09-29T04:02:54.916Z,83.29
2018-09-29T04:05:25.946Z,83.68
2018-09-29T04:07:56.145Z,83.42
2018-09-29T04:10:27.566Z,83.60
2018-09-29T04:12:57.360Z,84.47
2018-09-29T04:15:27.201Z,84.19
2018-09-29T04:17:57.730Z,84.27
2018-09-29T04:20:28.338Z,84.08
2018-09-29T04:22:58.697Z,84.39
2018-09-29T04:25:28.418Z,83.85
2018-09-29T04:27:59.370Z,83.94
2018-09-29T04:30:29.156Z,84.07
2018-09-29T04:32:58.837Z,84.84
2018-09-29T04:35:29.229Z,84.79
2018-09-29T04:37:58.890Z,84.16
2018-09-29T04:40:29.494Z,84.04
2018-09-29T04:43:00.805Z,84.00
2018-09-29T04:45:30.582Z,84.38
2018-09-29T04:48:00.201Z,84.71
2018-09-29T04:50:29.970Z,85.13
2018-09-29T04:52:59.644Z,85.17
2018-09-29T04:55:30.016Z,85.33
2018-09-29T04:58:00.337Z,85.13
2018-09-29T05:00:31.437Z,84.82
2018-09-29T05:03:01.759Z,85.29
2018-09-29T05:05:31.420Z,84.49
2018-09-29T05:08:01.330Z,85.05
2018-09-29T05:10:31.062Z,85.06
2018-09-29T05:13:03.142Z,84.91
2018-09-29T05:15:33.769Z,84.13
2018-09-29T05:18:04.220Z,84.27
2018-09-29T05:20:33.929Z,85.08
2018-09-29T05:23:04.005Z,84.23
2018-09-29T05:25:33.683Z,85.00
2018-09-29T05:28:06.655Z,84.19
2018-09-29T05:30:40.420Z,84.17
2018-09-29T05:33:11.964Z,83.92
2018-09-29T05:35:41.630Z,84.76
2018-09-29T05:38:12.253Z,84.48
2018-09-29T05:40:43.086Z,84.87
2018-09-29T05:43:14.205Z,84.78
2018-09-29T05:45:44.865Z,84.40
2018-09-29T05:48:15.409Z,85.05
2018-09-29T05:50:45.311Z,84.68
2018-09-29T05:53:15.950Z,84.85
2018-09-29T05:55:47.285Z,85.34
2018-09-29T05:58:23.189Z,85.16
2018-09-29T06:00:53.402Z,85.31
2018-09-29T06:03:25.516Z,85.81
2018-09-29T06:05:56.499Z,85.19
2018-09-29T06:08:27.339Z,85.25
2018-09-29T06:10:58.654Z,85.25
2018-09-29T06:13:30.801Z,85.17
2018-09-29T06:16:03.224Z,84.35
2018-09-29T06:18:33.840Z,86.02
2018-09-29T06:21:09.980Z,85.75
2018-09-29T06:23:41.294Z,86.40
2018-09-29T06:26:13.386Z,85.79
2018-09-29T06:28:43.482Z,85.60
2018-09-29T06:31:14.063Z,86.71
2018-09-29T06:33:43.753Z,85.80
2018-09-29T06:36:13.861Z,86.38
2018-09-29T06:38:44.259Z,86.08
2018-09-29T06:41:15.907Z,86.59
2018-09-29T06:43:54.700Z,87.70
2018-09-29T06:46:24.397Z,87.80
2018-09-29T06:48:54.071Z,87.94
2018-09-29T06:51:24.762Z,86.94
2018-09-29T06:53:54.866Z,87.18
2018-09-29T06:56:25.929Z,87.28
2018-09-29T06:58:57.007Z,84.88
2018-09-29T07:01:28.030Z,86.06
2018-09-29T07:04:01.996Z,84.98
2018-09-29T07:06:32.499Z,84.94
2018-09-29T07:09:03.300Z,85.22
2018-09-29T07:11:33.105Z,84.69
2018-09-29T07:14:05.362Z,84.92
2018-09-29T07:16:37.697Z,83.37
2018-09-29T07:19:08.754Z,83.49
2018-09-29T07:21:39.862Z,84.45
2018-09-29T07:24:10.542Z,84.20
2018-09-29T07:26:40.655Z,83.93
2018-09-29T07:29:11.193Z,83.80
2018-09-29T07:31:42.433Z,82.40
2018-09-29T07:34:12.526Z,81.91
2018-09-29T07:36:43.865Z,80.73
2018-09-29T07:39:14.016Z,81.28
2018-09-29T07:41:44.418Z,81.64
2018-09-29T07:44:14.828Z,81.34
2018-09-29T07:46:47.674Z,81.77
2018-09-29T07:49:19.746Z,82.29
2018-09-29T07:51:52.475Z,80.76
2018-09-29T07:54:25.099Z,79.32
2018-09-29T07:56:56.041Z,79.84
2018-09-29T07:59:28.289Z,80.48
2018-09-29T08:02:03.379Z,80.32
2018-09-29T08:04:39.964Z,79.08
2018-09-29T08:07:12.299Z,78.95
2018-09-29T08:09:42.812Z,78.87
2018-09-29T08:12:13.061Z,78.84
2018-09-29T08:14:50.471Z,76.96
2018-09-29T08:17:39.556Z,78.46
2018-09-29T08:20:10.152Z,78.72
2018-09-29T08:22:41.816Z,78.45
2018-09-29T08:25:16.363Z,77.20
2018-09-29T08:27:48.190Z,76.27
2018-09-29T08:30:20.728Z,76.55
2018-09-29T08:32:51.901Z,75.22
2018-09-29T08:35:22.864Z,77.77
2018-09-29T08:37:55.303Z,75.56
2018-09-29T08:40:25.436Z,75.86
2018-09-29T08:43:08.034Z,75.55
2018-09-29T08:45:39.645Z,76.14
2018-09-29T08:48:11.448Z,76.08
2018-09-29T08:50:42.409Z,75.07
2018-09-29T08:53:17.416Z,75.20
2018-09-29T08:55:47.594Z,74.73
2018-09-29T08:58:18.193Z,74.79
2018-09-29T09:00:50.514Z,73.64
2018-09-29T09:03:26.648Z,74.04
2018-09-29T09:05:59.390Z,73.75
2018-09-29T09:08:32.297Z,73.15
2018-09-29T09:11:02.605Z,73.54
2018-09-29T09:13:33.661Z,72.48
2018-09-29T09:16:06.185Z,72.95
2018-09-29T09:18:37.338Z,72.10
2018-09-29T09:21:08.618Z,71.88
2018-09-29T09:23:46.946Z,73.00
2018-09-29T09:26:21.065Z,70.77
2018-09-29T09:28:51.421Z,69.41
2018-09-29T09:31:22.744Z,67.67
2018-09-29T09:33:52.855Z,65.30
2018-09-29T09:36:23.781Z,66.11
2018-09-29T09:38:54.651Z,65.72
2018-09-29T09:41:27.228Z,65.47
2018-09-29T09:44:02.503Z,66.97
2018-09-29T09:46:33.413Z,66.38
2018-09-29T09:49:05.616Z,65.89
2018-09-29T09:51:36.628Z,66.32
2018-09-29T09:54:08.129Z,65.78
2018-09-29T09:56:43.313Z,64.61
2018-09-29T09:59:13.521Z,66.80
2018-09-29T10:01:48.683Z,64.04
2018-09-29T10:04:18.795Z,63.63
2018-09-29T10:06:51.959Z,61.36
2018-09-29T10:09:22.987Z,61.54
2018-09-29T10:11:53.620Z,60.36
2018-09-29T10:14:24.189Z,58.36
2018-09-29T10:16:56.659Z,59.46
2018-09-29T10:19:26.759Z,59.77
2018-09-29T10:21:58.310Z,57.42
2018-09-29T10:24:28.490Z,59.29
2018-09-29T10:26:58.285Z,59.55
2018-09-29T10:29:31.367Z,60.37
2018-09-29T10:32:02.096Z,57.95
2018-09-29T10:34:33.654Z,55.63
2018-09-29T10:37:05.090Z,58.42
2018-09-29T10:39:35.252Z,54.81
2018-09-29T10:42:06.864Z,56.50
2018-09-29T10:44:37.530Z,54.33
2018-09-29T10:47:08.244Z,55.70
2018-09-29T10:49:38.169Z,56.13
2018-09-29T10:52:09.821Z,55.04
2018-09-29T10:54:39.703Z,57.38
2018-09-29T10:57:09.369Z,55.02
2018-09-29T10:59:39.381Z,57.11
2018-09-29T11:02:11.254Z,55.39
2018-09-29T11:04:42.263Z,54.86
2018-09-29T11:07:14.378Z,54.66
2018-09-29T11:09:44.155Z,54.35
2018-09-29T11:12:14.650Z,53.11
2018-09-29T11:14:45.836Z,54.97
2018-09-29T11:17:17.144Z,54.73
2018-09-29T11:19:49.536Z,53.32
2018-09-29T11:22:20.214Z,53.64
2018-09-29T11:24:56.592Z,53.25
2018-09-29T11:27:27.362Z,53.44
2018-09-29T11:29:58.599Z,52.57
2018-09-29T11:32:30.944Z,52.16
2018-09-29T11:35:02.580Z,53.06
2018-09-29T11:37:34.241Z,51.71
2018-09-29T11:40:04.557Z,51.33
2018-09-29T11:42:35.666Z,52.45
2018-09-29T11:45:06.501Z,51.14
2018-09-29T11:47:40.623Z,51.54
2018-09-29T11:50:13.085Z,54.70
2018-09-29T11:52:46.415Z,54.99
2018-09-29T11:55:16.812Z,54.92
2018-09-29T11:57:47.449Z,51.77
2018-09-29T12:00:17.502Z,51.62
2018-09-29T12:02:50.194Z,50.52
2018-09-29T12:05:19.805Z,51.94
2018-09-29T12:07:50.297Z,54.62
2018-09-29T12:10:24.638Z,54.40
2018-09-29T12:12:56.043Z,52.96
2018-09-29T12:15:26.104Z,53.84
2018-09-29T12:17:58.893Z,53.61
2018-09-29T12:20:29.337Z,53.23
2018-09-29T12:22:59.053Z,53.65
2018-09-29T12:25:28.725Z,53.26
2018-09-29T12:27:58.403Z,54.41
2018-09-29T12:30:29.861Z,54.01
2018-09-29T12:33:03.856Z,54.44
2018-09-29T12:35:35.943Z,52.40
2018-09-29T12:38:08.854Z,52.65
2018-09-29T12:40:40.530Z,53.65
2018-09-29T12:43:10.175Z,56.03
2018-09-29T12:45:41.309Z,55.79
2018-09-29T12:48:11.929Z,54.57
2018-09-29T12:50:42.623Z,54.09
2018-09-29T12:53:12.261Z,54.66
2018-09-29T12:55:43.370Z,54.39
2018-09-29T12:58:15.861Z,53.93
2018-09-29T13:00:46.524Z,54.43
2018-09-29T13:03:18.570Z,55.47
2018-09-29T13:05:48.581Z,54.69
2018-09-29T13:08:20.445Z,56.16
2018-09-29T13:10:50.325Z,55.09
2018-09-29T13:13:20.046Z,55.04
2018-09-29T13:15:51.441Z,55.34
2018-09-29T13:18:23.078Z,55.13
2018-09-29T13:20:52.875Z,53.79
2018-09-29T13:23:26.651Z,53.79
2018-09-29T13:25:56.594Z,53.57
2018-09-29T13:28:26.865Z,53.08
2018-09-29T13:30:57.186Z,53.02
2018-09-29T13:33:31.693Z,53.67
2018-09-29T13:36:09.790Z,53.80
2018-09-29T13:38:45.368Z,53.57
2018-09-29T13:41:15.353Z,54.00
2018-09-29T13:43:45.474Z,53.88
2018-09-29T13:46:17.521Z,52.37
2018-09-29T13:48:48.530Z,52.23
2018-09-29T13:51:18.753Z,53.45
2018-09-29T13:53:48.700Z,54.62
2018-09-29T13:56:18.419Z,53.12
2018-09-29T13:58:48.110Z,52.43
2018-09-29T14:01:23.607Z,52.74
2018-09-29T14:03:59.349Z,53.97
2018-09-29T14:06:28.988Z,52.49
2018-09-29T14:08:59.529Z,52.37
2018-09-29T14:11:29.403Z,51.87
2018-09-29T14:14:02.704Z,52.69
2018-09-29T14:16:35.065Z,52.33
2018-09-29T14:19:05.347Z,51.89
2018-09-29T14:21:37.193Z,51.81
2018-09-29T14:24:16.324Z,52.15
2018-09-29T14:26:46.756Z,51.76
2018-09-29T14:29:17.622Z,51.88
2018-09-29T14:31:49.613Z,51.93
2018-09-29T14:34:24.955Z,51.04
2018-09-29T14:36:55.794Z,51.23
2018-09-29T14:39:25.488Z,51.58
2018-09-29T14:41:55.366Z,51.04
2018-09-29T14:44:35.286Z,51.31
2018-09-29T14:47:04.970Z,51.09
2018-09-29T14:49:35.075Z,51.56
2018-09-29T14:52:08.417Z,51.73
2018-09-29T14:58:10.476Z,52.08
2018-09-29T15:00:42.097Z,51.20
2018-09-29T15:03:16.180Z,51.24
2018-09-29T15:05:50.092Z,50.74
2018-09-29T15:08:20.546Z,50.45
2018-09-29T15:10:52.359Z,51.44
2018-09-29T15:13:23.914Z,51.08
2018-09-29T15:15:57.970Z,50.86
2018-09-29T15:18:31.392Z,51.35
2018-09-29T15:21:02.418Z,52.50
2018-09-29T15:23:35.180Z,51.52
2018-09-29T15:26:06.896Z,51.71
2018-09-29T15:28:37.632Z,51.65
2018-09-29T15:31:08.454Z,52.82
2018-09-29T15:33:39.446Z,52.55
2018-09-29T15:36:09.392Z,53.18
2018-09-29T15:38:41.845Z,52.79
2018-09-29T15:41:13.633Z,53.79
2018-09-29T15:43:44.768Z,52.96
2018-09-29T15:46:17.436Z,52.91
2018-09-29T15:48:49.465Z,52.96
2018-09-29T15:51:20.266Z,53.04
2018-09-29T15:53:51.573Z,52.63
2018-09-29T15:56:23.157Z,53.31
2018-09-29T15:58:53.540Z,53.36
2018-09-29T16:01:25.326Z,53.66
2018-09-29T16:03:56.907Z,54.17
2018-09-29T16:06:31.492Z,54.97
2018-09-29T16:09:08.007Z,55.11
2018-09-29T16:11:40.302Z,55.93
2018-09-29T16:14:10.363Z,55.31
2018-09-29T16:16:44.042Z,56.08
2018-09-29T16:19:14.648Z,56.34
2018-09-29T16:21:46.498Z,56.50
2018-09-29T16:24:17.574Z,56.41
2018-09-29T16:26:50.615Z,56.92
2018-09-29T16:29:23.800Z,59.20
2018-09-29T16:31:54.357Z,58.65
2018-09-29T16:34:27.043Z,60.18
2018-09-29T16:36:57.047Z,60.68
2018-09-29T16:39:28.639Z,61.03
2018-09-29T16:42:00.651Z,61.96
2018-09-29T16:44:30.816Z,62.69
2018-09-29T16:47:08.447Z,62.87
2018-09-29T16:49:39.326Z,63.23
2018-09-29T16:52:09.418Z,64.03
2018-09-29T16:54:41.547Z,63.49
2018-09-29T16:57:12.663Z,64.29
2018-09-29T16:59:44.785Z,64.71
2018-09-29T17:02:17.483Z,64.68
2018-09-29T17:04:52.448Z,64.56
2018-09-29T17:07:22.679Z,65.67
2018-09-29T17:09:54.480Z,65.17
2018-09-29T17:12:26.382Z,65.58
2018-09-29T17:14:57.371Z,66.27
2018-09-29T17:17:28.690Z,66.18
2018-09-29T17:19:59.482Z,65.69
2018-09-29T17:22:29.755Z,66.68
2018-09-29T17:25:00.204Z,67.63
2018-09-29T17:27:31.361Z,67.40
2018-09-29T17:30:04.590Z,68.49
2018-09-29T17:32:35.822Z,67.77
2018-09-29T17:35:07.863Z,67.90
2018-09-29T17:37:40.964Z,67.97
2018-09-29T17:40:12.256Z,69.02
2018-09-29T17:42:49.518Z,67.91
2018-09-29T17:45:21.239Z,69.26
2018-09-29T17:47:56.497Z,68.49
2018-09-29T17:50:29.431Z,69.69
2018-09-29T17:53:01.204Z,69.85
2018-09-29T17:55:33.029Z,70.95
2018-09-29T17:58:04.377Z,71.81
2018-09-29T18:00:34.449Z,70.90
2018-09-29T18:03:06.073Z,70.99
2018-09-29T18:05:36.620Z,72.15
2018-09-29T18:08:08.209Z,72.62
2018-09-29T18:10:38.769Z,71.25
2018-09-29T18:13:11.051Z,71.21
2018-09-29T18:15:45.451Z,71.52
2018-09-29T18:18:16.804Z,73.68
2018-09-29T18:20:48.414Z,73.17
2018-09-29T18:23:18.738Z,73.40
2018-09-29T18:25:50.665Z,72.28
2018-09-29T18:28:26.274Z,73.39
2018-09-29T18:30:59.403Z,73.85
2018-09-29T18:33:37.469Z,73.90
2018-09-29T18:36:10.112Z,74.28
2018-09-29T18:38:41.367Z,74.71
2018-09-29T18:41:12.417Z,74.35
2018-09-29T18:43:43.239Z,75.22
2018-09-29T18:46:14.324Z,73.90
2018-09-29T18:48:50.254Z,75.76
2018-09-29T18:51:20.617Z,74.52
2018-09-29T18:53:51.496Z,74.72
2018-09-29T18:56:23.311Z,76.36
2018-09-29T18:58:54.964Z,76.27
2018-09-29T19:01:25.412Z,75.42
2018-09-29T19:03:58.439Z,76.34
2018-09-29T19:09:08.612Z,76.54
2018-09-29T19:11:41.606Z,76.06
2018-09-29T19:14:13.418Z,77.60
2018-09-29T19:16:48.809Z,77.70
2018-09-29T19:21:59.466Z,77.11
2018-09-29T19:24:30.473Z,77.95
2018-09-29T19:27:09.040Z,77.80
2018-09-29T19:29:43.343Z,78.30
2018-09-29T19:32:18.235Z,78.05
2018-09-29T19:34:57.582Z,77.66
2018-09-29T19:37:32.531Z,76.80
2018-09-29T19:40:05.340Z,78.41
2018-09-29T19:42:41.718Z,78.35
2018-09-29T19:45:13.825Z,78.29
2018-09-29T19:47:49.787Z,77.59
2018-09-29T19:50:24.281Z,79.20
2018-09-29T19:52:57.263Z,78.71
2018-09-29T19:55:29.785Z,78.58
2018-09-29T19:58:03.745Z,78.62
2018-09-29T20:00:39.528Z,78.85
2018-09-29T20:03:12.772Z,78.14
2018-09-29T20:05:46.428Z,78.90
2018-09-29T20:08:18.398Z,79.68
2018-09-29T20:10:51.429Z,79.88
2018-09-29T20:13:50.084Z,80.04
2018-09-29T20:16:19.937Z,79.65
2018-09-29T20:18:51.430Z,79.10
2018-09-29T20:21:24.426Z,80.59
2018-09-29T20:23:56.150Z,79.85
2018-09-29T20:26:27.916Z,79.47
2018-09-29T20:29:12.581Z,80.26
2018-09-29T20:31:44.417Z,80.55
2018-09-29T20:34:15.479Z,80.50
2018-09-29T20:36:45.751Z,80.35
2018-09-29T20:39:16.769Z,79.66
2018-09-29T20:41:47.816Z,80.00
2018-09-29T20:44:20.346Z,80.31
2018-09-29T20:46:53.190Z,80.41
2018-09-29T20:49:24.002Z,80.76
2018-09-29T20:51:56.598Z,80.68
2018-09-29T20:54:27.490Z,80.35
2018-09-29T20:57:01.641Z,79.96
2018-09-29T20:59:33.979Z,80.49
2018-09-29T21:02:04.662Z,80.72
2018-09-29T21:04:36.849Z,80.59
2018-09-29T21:07:06.678Z,80.94
2018-09-29T21:09:38.045Z,80.37
2018-09-29T21:12:09.498Z,80.53
2018-09-29T21:14:39.402Z,80.89
2018-09-29T21:17:09.962Z,80.34
2018-09-29T21:19:41.407Z,81.27
2018-09-29T21:22:11.081Z,81.89
2018-09-29T21:24:41.667Z,81.74
2018-09-29T21:27:13.288Z,81.87
2018-09-29T21:29:42.996Z,82.00
2018-09-29T21:32:13.864Z,81.90
2018-09-29T21:34:44.463Z,81.94
2018-09-29T21:37:14.305Z,82.68
2018-09-29T21:39:46.523Z,81.91
2018-09-29T21:42:21.856Z,82.67
2018-09-29T21:44:53.323Z,82.20
2018-09-29T21:47:23.947Z,81.68
2018-09-29T21:49:56.486Z,82.36
2018-09-29T21:52:26.299Z,81.89
2018-09-29T21:54:56.142Z,82.18
2018-09-29T21:57:26.799Z,83.51
2018-09-29T21:59:56.489Z,83.29
2018-09-29T22:02:29.345Z,82.71
2018-09-29T22:04:59.194Z,83.16
2018-09-29T22:07:30.815Z,82.81
2018-09-29T22:10:01.114Z,82.94
2018-09-29T22:12:31.213Z,83.11
2018-09-29T22:15:05.921Z,83.56
2018-09-29T22:17:36.261Z,83.52
2018-09-29T22:20:06.349Z,83.09
2018-09-29T22:22:36.670Z,83.03
2018-09-29T22:25:08.772Z,83.30
2018-09-29T22:27:39.783Z,82.39
2018-09-29T22:30:11.021Z,83.15
2018-09-29T22:32:42.282Z,82.32
2018-09-29T22:35:11.954Z,83.12
2018-09-29T22:37:41.650Z,82.49
2018-09-29T22:40:13.506Z,82.74
2018-09-29T22:42:44.500Z,82.46
2018-09-29T22:45:14.219Z,82.87
2018-09-29T22:47:43.852Z,83.23
2018-09-29T22:50:14.871Z,83.55
2018-09-29T22:52:44.518Z,82.72
2018-09-29T22:55:15.117Z,82.36
2018-09-29T22:57:44.998Z,82.68
2018-09-29T23:00:14.626Z,83.07
2018-09-29T23:02:44.605Z,83.36
2018-09-29T23:05:14.242Z,82.86
2018-09-29T23:07:44.765Z,83.74
2018-09-29T23:10:15.373Z,83.94
2018-09-29T23:12:45.480Z,83.58
2018-09-29T23:15:15.730Z,82.92
2018-09-29T23:17:51.436Z,83.44
2018-09-29T23:20:35.238Z,83.14
2018-09-29T23:23:29.245Z,83.26
2018-09-29T23:26:00.350Z,83.74
2018-09-29T23:28:30.206Z,83.13
2018-09-29T23:31:01.914Z,83.53
2018-09-29T23:33:31.628Z,83.42
2018-09-29T23:36:01.317Z,83.70
2018-09-29T23:38:31.821Z,83.22
2018-09-29T23:41:02.604Z,83.74
2018-09-29T23:43:33.950Z,83.39
2018-09-29T23:46:03.629Z,81.35
2018-09-29T23:48:50.561Z,81.10
2018-09-29T23:51:22.050Z,79.37
2018-09-29T23:53:56.231Z,79.81
2018-09-29T23:56:26.602Z,79.08
2018-09-29T23:58:57.432Z,77.93
